createdAt,value
2018-11-13T00:00:08.990Z,91.60
2018-11-13T00:02:37.615Z,91.80
2018-11-13T00:05:06.296Z,91.60
2018-11-13T00:07:35.050Z,91.60
2018-11-13T00:10:03.702Z,91.60
2018-11-13T00:12:32.285Z,91.60
2018-11-13T00:15:00.881Z,91.60
2018-11-13T00:17:29.460Z,91.60
2018-11-13T00:19:58.082Z,91.90
2018-11-13T00:22:26.698Z,91.70
2018-11-13T00:24:55.365Z,91.50
2018-11-13T00:27:24.112Z,91.50
2018-11-13T00:29:52.890Z,91.60
2018-11-13T00:32:21.541Z,91.70
2018-11-13T00:34:50.236Z,91.90
2018-11-13T00:37:18.875Z,91.90
2018-11-13T00:39:47.554Z,91.80
2018-11-13T00:42:16.153Z,91.80
2018-11-13T00:44:44.768Z,91.70
2018-11-13T00:47:13.366Z,91.80
2018-11-13T00:49:41.981Z,91.60
2018-11-13T00:52:10.587Z,91.60
2018-11-13T00:54:39.141Z,91.50
2018-11-13T00:57:08.122Z,91.60
2018-11-13T00:59:36.700Z,91.60
2018-11-13T01:02:06.460Z,91.50
2018-11-13T01:04:34.727Z,91.60
2018-11-13T01:07:03.360Z,91.60
2018-11-13T01:09:31.992Z,91.70
2018-11-13T01:12:00.695Z,91.70
2018-11-13T01:14:29.316Z,91.70
2018-11-13T01:16:58.227Z,91.60
2018-11-13T01:19:37.290Z,91.60
2018-11-13T01:22:08.070Z,91.60
2018-11-13T01:24:37.959Z,91.60
2018-11-13T01:27:09.613Z,91.50
2018-11-13T01:29:38.238Z,91.50
2018-11-13T01:32:06.860Z,91.40
2018-11-13T01:34:35.481Z,91.50
2018-11-13T01:37:04.204Z,91.30
2018-11-13T01:39:32.800Z,91.50
2018-11-13T01:42:01.473Z,91.40
2018-11-13T01:44:30.058Z,91.40
2018-11-13T01:46:58.666Z,91.30
2018-11-13T01:49:27.334Z,91.30
2018-11-13T01:51:55.960Z,91.20
2018-11-13T01:54:24.627Z,91.20
2018-11-13T01:56:53.256Z,91.30
2018-11-13T01:59:22.062Z,91.40
2018-11-13T02:01:50.744Z,91.40
2018-11-13T02:04:19.336Z,91.40
2018-11-13T02:06:47.930Z,91.40
2018-11-13T02:09:16.572Z,91.40
2018-11-13T02:11:45.259Z,91.20
2018-11-13T02:14:13.945Z,91.30
2018-11-13T02:16:42.597Z,91.20
2018-11-13T02:19:11.211Z,91.20
2018-11-13T02:21:39.877Z,91.30
2018-11-13T02:24:08.582Z,91.30
2018-11-13T02:26:37.161Z,91.30
2018-11-13T02:29:06.170Z,91.30
2018-11-13T02:31:34.782Z,91.30
2018-11-13T02:34:03.414Z,91.40
2018-11-13T02:36:32.069Z,91.40
2018-11-13T02:39:00.703Z,91.30
2018-11-13T02:41:29.771Z,91.30
2018-11-13T02:43:58.547Z,91.30
2018-11-13T02:46:27.201Z,91.30
2018-11-13T02:48:56.314Z,91.10
2018-11-13T02:51:25.127Z,91.00
2018-11-13T02:53:53.732Z,90.90
2018-11-13T02:56:22.365Z,90.80
2018-11-13T02:58:50.979Z,90.70
2018-11-13T03:01:19.888Z,90.80
2018-11-13T03:03:48.537Z,91.00
2018-11-13T03:06:17.278Z,90.90
2018-11-13T03:08:45.909Z,90.90
2018-11-13T03:11:14.583Z,91.00
2018-11-13T03:13:43.303Z,91.00
2018-11-13T03:16:11.968Z,91.10
2018-11-13T03:18:40.727Z,91.00
2018-11-13T03:21:09.420Z,91.10
2018-11-13T03:23:38.061Z,91.10
2018-11-13T03:26:07.307Z,91.00
2018-11-13T03:28:36.007Z,90.90
2018-11-13T03:31:04.791Z,90.90
2018-11-13T03:33:33.333Z,90.60
2018-11-13T03:36:01.930Z,90.40
2018-11-13T03:38:39.100Z,90.30
2018-11-13T03:41:07.743Z,90.30
2018-11-13T03:43:36.332Z,90.20
2018-11-13T03:46:05.475Z,89.90
2018-11-13T03:48:34.418Z,90.10
2018-11-13T03:51:03.107Z,90.10
2018-11-13T03:53:31.765Z,90.20
2018-11-13T03:56:00.858Z,90.10
2018-11-13T03:58:29.501Z,90.00
2018-11-13T04:00:58.113Z,90.00
2018-11-13T04:03:26.770Z,90.10
2018-11-13T04:05:55.397Z,89.90
2018-11-13T04:08:24.100Z,89.40
2018-11-13T04:10:52.750Z,89.80
2018-11-13T04:13:21.373Z,90.00
2018-11-13T04:15:49.982Z,90.10
2018-11-13T04:18:18.618Z,90.00
2018-11-13T04:20:47.282Z,90.00
2018-11-13T04:23:15.988Z,90.00
2018-11-13T04:25:46.504Z,90.20
2018-11-13T04:28:16.671Z,90.30
2018-11-13T04:30:45.355Z,90.30
2018-11-13T04:33:14.266Z,90.00
2018-11-13T04:35:44.365Z,90.00
2018-11-13T04:38:14.474Z,90.00
2018-11-13T04:40:43.619Z,90.00
2018-11-13T04:43:12.639Z,90.10
2018-11-13T04:45:41.665Z,90.20
2018-11-13T04:48:10.845Z,90.20
2018-11-13T04:50:40.811Z,90.30
2018-11-13T04:53:09.963Z,90.40
2018-11-13T04:55:39.098Z,90.40
2018-11-13T04:58:08.324Z,90.50
2018-11-13T05:00:36.910Z,90.40
2018-11-13T05:03:05.602Z,90.30
2018-11-13T05:05:34.171Z,90.30
2018-11-13T05:08:02.779Z,90.30
2018-11-13T05:10:31.628Z,90.10
2018-11-13T05:13:00.253Z,90.00
2018-11-13T05:15:29.261Z,89.80
2018-11-13T05:17:58.354Z,90.00
2018-11-13T05:20:27.554Z,90.10
2018-11-13T05:22:58.402Z,90.10
2018-11-13T05:25:27.042Z,89.60
2018-11-13T05:27:55.704Z,89.90
2018-11-13T05:30:24.330Z,90.10
2018-11-13T05:32:52.943Z,90.20
2018-11-13T05:35:22.249Z,90.10
2018-11-13T05:37:50.970Z,90.00
2018-11-13T05:40:20.827Z,90.10
2018-11-13T05:42:49.756Z,90.20
2018-11-13T05:45:20.555Z,90.00
2018-11-13T05:47:49.179Z,90.00
2018-11-13T05:50:19.058Z,90.10
2018-11-13T05:52:49.258Z,90.30
2018-11-13T05:55:18.014Z,90.40
2018-11-13T05:57:46.891Z,90.50
2018-11-13T06:00:31.494Z,90.60
2018-11-13T06:03:00.845Z,90.30
2018-11-13T06:05:29.706Z,90.20
2018-11-13T06:07:58.489Z,90.10
2018-11-13T06:10:27.142Z,90.20
2018-11-13T06:12:55.737Z,90.30
2018-11-13T06:15:24.490Z,90.20
2018-11-13T06:17:53.153Z,90.10
2018-11-13T06:20:21.740Z,90.20
2018-11-13T06:22:50.639Z,90.00
2018-11-13T06:25:19.674Z,90.10
2018-11-13T06:27:49.467Z,90.00
2018-11-13T06:30:21.451Z,90.00
2018-11-13T06:32:50.693Z,90.20
2018-11-13T06:35:19.586Z,90.20
2018-11-13T06:37:48.231Z,90.10
2018-11-13T06:40:16.961Z,90.20
2018-11-13T06:42:45.567Z,90.00
2018-11-13T06:45:17.048Z,90.10
2018-11-13T06:47:46.352Z,89.90
2018-11-13T06:50:14.984Z,90.00
2018-11-13T06:52:44.448Z,90.00
2018-11-13T06:55:17.013Z,90.40
2018-11-13T06:57:45.867Z,90.10
2018-11-13T07:00:14.433Z,90.10
2018-11-13T07:02:43.035Z,90.20
2018-11-13T07:05:14.363Z,90.20
2018-11-13T07:07:43.225Z,90.10
2018-11-13T07:10:15.017Z,90.10
2018-11-13T07:12:44.981Z,90.30
2018-11-13T07:15:18.057Z,90.10
2018-11-13T07:17:48.016Z,90.20
2018-11-13T07:20:17.649Z,90.10
2018-11-13T07:22:46.416Z,90.00
2018-11-13T07:25:15.569Z,89.90
2018-11-13T07:27:44.901Z,89.10
2018-11-13T07:30:15.397Z,89.20
2018-11-13T07:32:45.388Z,89.30
2018-11-13T07:35:15.743Z,88.90
2018-11-13T07:37:48.560Z,88.30
2018-11-13T07:40:18.829Z,88.00
2018-11-13T07:42:49.819Z,89.10
2018-11-13T07:45:18.705Z,87.80
2018-11-13T07:47:47.995Z,87.80
2018-11-13T07:50:17.161Z,87.70
2018-11-13T07:52:46.000Z,88.00
2018-11-13T07:55:16.392Z,88.60
2018-11-13T07:57:45.344Z,88.80
2018-11-13T08:00:15.911Z,88.90
2018-11-13T08:02:46.779Z,89.20
2018-11-13T08:05:16.139Z,89.20
2018-11-13T08:07:47.273Z,88.80
2018-11-13T08:10:30.684Z,88.70
2018-11-13T08:13:05.262Z,88.50
2018-11-13T08:15:38.979Z,89.40
2018-11-13T08:18:08.708Z,89.30
2018-11-13T08:20:38.517Z,88.80
2018-11-13T08:23:08.681Z,89.20
2018-11-13T08:25:38.148Z,89.60
2018-11-13T08:28:07.171Z,90.00
2018-11-13T08:30:35.692Z,90.00
2018-11-13T08:33:04.541Z,90.10
2018-11-13T08:35:34.155Z,90.00
2018-11-13T08:38:03.524Z,90.10
2018-11-13T08:40:32.857Z,90.10
2018-11-13T08:43:02.701Z,90.00
2018-11-13T08:45:33.718Z,89.70
2018-11-13T08:48:05.020Z,89.80
2018-11-13T08:50:37.035Z,89.80
2018-11-13T08:53:06.380Z,88.90
2018-11-13T08:55:36.816Z,89.80
2018-11-13T08:58:06.474Z,89.40
2018-11-13T09:00:35.305Z,89.40
2018-11-13T09:03:06.071Z,89.10
2018-11-13T09:05:35.138Z,89.40
2018-11-13T09:08:08.626Z,88.30
2018-11-13T09:10:42.480Z,88.90
2018-11-13T09:13:11.626Z,88.30
2018-11-13T09:15:42.236Z,86.20
2018-11-13T09:18:13.049Z,85.90
2018-11-13T09:20:43.803Z,86.40
2018-11-13T09:23:13.132Z,85.30
2018-11-13T09:25:42.894Z,85.70
2018-11-13T09:28:26.684Z,86.90
2018-11-13T09:43:23.000Z,86.80
2018-11-13T09:46:52.913Z,87.30
2018-11-13T09:49:25.128Z,87.10
2018-11-13T09:51:57.361Z,86.10
2018-11-13T09:54:28.641Z,85.00
2018-11-13T09:56:58.071Z,85.80
2018-11-13T09:59:29.814Z,86.70
2018-11-13T10:01:59.408Z,87.10
2018-11-13T10:04:28.891Z,85.90
2018-11-13T10:06:57.850Z,86.50
2018-11-13T10:09:28.636Z,86.90
2018-11-13T10:12:01.640Z,86.50
2018-11-13T10:14:31.756Z,86.10
2018-11-13T10:17:00.417Z,86.40
2018-11-13T10:19:29.928Z,86.50
2018-11-13T10:21:58.966Z,86.10
2018-11-13T10:24:27.554Z,86.30
2018-11-13T10:26:57.249Z,86.30
2018-11-13T10:29:27.328Z,86.20
2018-11-13T10:31:55.974Z,86.20
2018-11-13T10:34:24.558Z,85.40
2018-11-13T10:36:53.090Z,86.20
2018-11-13T10:39:21.660Z,85.10
2018-11-13T10:41:50.200Z,85.50
2018-11-13T10:44:18.822Z,84.30
2018-11-13T10:46:47.413Z,84.30
2018-11-13T10:49:16.078Z,84.90
2018-11-13T10:51:44.566Z,84.50
2018-11-13T10:54:13.141Z,84.20
2018-11-13T10:56:41.700Z,83.40
2018-11-13T10:59:10.281Z,83.70
2018-11-13T11:01:44.212Z,84.90
2018-11-13T11:04:18.041Z,83.60
2018-11-13T11:06:46.634Z,82.60
2018-11-13T11:09:15.221Z,82.90
2018-11-13T11:11:43.764Z,82.60
2018-11-13T11:14:13.068Z,82.40
2018-11-13T11:16:41.617Z,82.00
2018-11-13T11:19:10.241Z,81.10
2018-11-13T11:21:38.841Z,80.50
2018-11-13T11:24:07.539Z,81.30
2018-11-13T11:26:36.056Z,81.00
2018-11-13T11:29:04.609Z,80.00
2018-11-13T11:31:33.185Z,81.00
2018-11-13T11:34:01.738Z,81.80
2018-11-13T11:36:30.287Z,80.30
2018-11-13T11:38:59.087Z,79.00
2018-11-13T11:41:27.619Z,79.40
2018-11-13T11:43:56.195Z,78.60
2018-11-13T11:46:24.862Z,79.00
2018-11-13T11:48:53.377Z,79.40
2018-11-13T11:51:21.965Z,77.70
2018-11-13T11:53:50.549Z,76.80
2018-11-13T11:56:19.094Z,75.60
2018-11-13T11:58:47.680Z,76.30
2018-11-13T12:01:16.274Z,77.70
2018-11-13T12:03:44.852Z,77.20
2018-11-13T12:06:13.462Z,78.10
2018-11-13T12:08:42.097Z,77.10
2018-11-13T12:11:10.649Z,77.70
2018-11-13T12:13:39.347Z,78.50
2018-11-13T12:16:08.089Z,78.20
2018-11-13T12:18:36.829Z,78.00
2018-11-13T12:21:05.648Z,75.60
2018-11-13T12:23:34.209Z,75.40
2018-11-13T12:26:02.844Z,73.90
2018-11-13T12:28:31.470Z,74.40
2018-11-13T12:31:00.066Z,74.40
2018-11-13T12:33:28.645Z,73.60
2018-11-13T12:35:57.243Z,72.80
2018-11-13T12:38:26.013Z,72.70
2018-11-13T12:40:54.697Z,69.70
2018-11-13T12:43:23.252Z,66.30
2018-11-13T12:45:51.845Z,64.50
2018-11-13T12:48:20.393Z,66.60
2018-11-13T12:50:54.308Z,67.20
2018-11-13T12:53:22.859Z,65.10
2018-11-13T12:55:51.634Z,65.10
2018-11-13T12:58:20.158Z,63.20
2018-11-13T13:00:48.811Z,64.60
2018-11-13T13:03:17.457Z,64.50
2018-11-13T13:05:46.048Z,63.80
2018-11-13T13:08:14.709Z,63.40
2018-11-13T13:10:43.360Z,64.10
2018-11-13T13:13:12.190Z,63.10
2018-11-13T13:15:40.988Z,62.20
2018-11-13T13:18:09.575Z,61.20
2018-11-13T13:20:38.183Z,61.70
2018-11-13T13:23:06.774Z,62.30
2018-11-13T13:25:35.499Z,61.50
2018-11-13T13:28:04.105Z,62.10
2018-11-13T13:30:32.722Z,62.60
2018-11-13T13:33:01.272Z,63.50
2018-11-13T13:36:04.160Z,61.50
2018-11-13T13:38:34.363Z,61.90
2018-11-13T13:41:03.814Z,63.30
2018-11-13T13:43:32.997Z,62.80
2018-11-13T13:46:01.619Z,64.40
2018-11-13T13:48:30.181Z,62.60
2018-11-13T13:50:58.789Z,59.60
2018-11-13T13:53:27.927Z,60.20
2018-11-13T13:55:56.565Z,60.10
2018-11-13T13:58:25.690Z,60.20
2018-11-13T14:00:55.453Z,61.40
2018-11-13T14:03:24.034Z,61.70
2018-11-13T14:05:52.677Z,61.20
2018-11-13T14:08:21.440Z,60.70
2018-11-13T14:10:50.504Z,62.60
2018-11-13T14:13:19.219Z,62.50
2018-11-13T14:15:47.956Z,62.50
2018-11-13T14:18:16.599Z,61.40
2018-11-13T14:20:45.251Z,60.90
2018-11-13T14:23:13.792Z,59.80
2018-11-13T14:25:42.376Z,60.00
2018-11-13T14:28:10.961Z,58.70
2018-11-13T14:30:39.559Z,58.40
2018-11-13T14:33:09.375Z,59.20
2018-11-13T14:35:40.072Z,59.70
2018-11-13T14:38:08.718Z,59.80
2018-11-13T14:40:41.883Z,59.30
2018-11-13T14:43:10.687Z,59.20
2018-11-13T14:45:39.488Z,59.00
2018-11-13T14:48:08.963Z,58.80
2018-11-13T14:50:37.989Z,59.70
2018-11-13T14:53:07.229Z,59.40
2018-11-13T14:55:37.147Z,59.80
2018-11-13T14:58:07.246Z,60.30
2018-11-13T15:00:36.745Z,61.00
2018-11-13T15:03:06.836Z,60.90
2018-11-13T15:05:35.806Z,61.90
2018-11-13T15:08:06.094Z,62.40
2018-11-13T15:10:49.017Z,61.90
2018-11-13T15:13:18.163Z,61.60
2018-11-13T15:15:47.069Z,62.50
2018-11-13T15:18:15.855Z,63.50
2018-11-13T15:20:45.197Z,62.70
2018-11-13T15:23:14.111Z,63.20
2018-11-13T15:25:42.676Z,62.10
2018-11-13T15:28:11.770Z,63.50
2018-11-13T15:30:43.851Z,62.70
2018-11-13T15:33:13.929Z,63.60
2018-11-13T15:35:42.520Z,64.70
2018-11-13T15:38:12.034Z,63.40
2018-11-13T15:40:40.601Z,63.60
2018-11-13T15:43:09.160Z,65.30
2018-11-13T15:45:37.891Z,64.20
2018-11-13T15:48:08.545Z,65.30
2018-11-13T15:50:37.830Z,65.40
2018-11-13T15:53:07.806Z,64.90
2018-11-13T15:55:36.421Z,67.60
2018-11-13T15:58:05.741Z,66.80
2018-11-13T16:00:36.366Z,69.10
2018-11-13T16:03:37.368Z,68.20
2018-11-13T16:06:07.644Z,68.30
2018-11-13T16:08:36.491Z,68.90
2018-11-13T16:11:05.147Z,69.00
2018-11-13T16:13:33.792Z,68.90
2018-11-13T16:16:03.742Z,69.60
2018-11-13T16:18:32.472Z,68.90
2018-11-13T16:21:01.163Z,69.50
2018-11-13T16:23:29.637Z,69.50
2018-11-13T16:25:58.331Z,69.80
2018-11-13T16:28:26.993Z,70.60
2018-11-13T16:30:55.775Z,70.90
2018-11-13T16:33:24.257Z,71.40
2018-11-13T16:35:53.146Z,71.50
2018-11-13T16:38:21.986Z,71.90
2018-11-13T16:40:50.459Z,71.80
2018-11-13T16:43:19.083Z,72.50
2018-11-13T16:45:47.708Z,72.50
2018-11-13T16:48:16.509Z,73.40
2018-11-13T16:50:44.967Z,72.50
2018-11-13T16:53:13.512Z,73.00
2018-11-13T16:55:47.541Z,71.80
2018-11-13T16:58:17.052Z,73.10
2018-11-13T17:00:45.872Z,72.60
2018-11-13T17:03:14.425Z,73.50
2018-11-13T17:05:43.095Z,73.10
2018-11-13T17:08:23.021Z,73.40
2018-11-13T17:10:52.308Z,73.10
2018-11-13T17:13:20.862Z,72.60
2018-11-13T17:15:49.546Z,73.40
2018-11-13T17:18:18.128Z,73.20
2018-11-13T17:20:46.705Z,72.50
2018-11-13T17:23:15.428Z,73.00
2018-11-13T17:25:44.186Z,72.60
2018-11-13T17:28:12.868Z,72.90
2018-11-13T17:30:41.450Z,73.00
2018-11-13T17:33:10.820Z,72.60
2018-11-13T17:35:39.555Z,73.50
2018-11-13T17:38:08.664Z,73.10
2018-11-13T17:40:37.929Z,73.10
2018-11-13T17:43:07.420Z,72.70
2018-11-13T17:45:37.518Z,73.10
2018-11-13T17:48:08.029Z,73.00
2018-11-13T17:50:39.990Z,72.90
2018-11-13T17:53:09.479Z,73.60
2018-11-13T17:55:38.454Z,73.30
2018-11-13T17:58:09.827Z,74.00
2018-11-13T18:00:43.703Z,74.00
2018-11-13T18:03:13.884Z,74.40
2018-11-13T18:05:43.543Z,74.90
2018-11-13T18:08:12.737Z,74.90
2018-11-13T18:10:42.364Z,74.90
2018-11-13T18:13:11.152Z,74.70
2018-11-13T18:15:39.782Z,75.00
2018-11-13T18:18:08.982Z,75.00
2018-11-13T18:20:40.016Z,75.10
2018-11-13T18:23:09.105Z,75.10
2018-11-13T18:25:37.738Z,75.20
2018-11-13T18:28:06.896Z,75.10
2018-11-13T18:30:36.954Z,75.20
2018-11-13T18:33:06.660Z,75.30
2018-11-13T18:35:36.621Z,75.50
2018-11-13T18:38:06.695Z,75.70
2018-11-13T18:40:35.354Z,75.70
2018-11-13T18:43:04.333Z,75.90
2018-11-13T18:45:34.655Z,75.90
2018-11-13T18:48:03.269Z,75.40
2018-11-13T18:53:36.095Z,75.20
2018-11-13T18:56:05.371Z,75.20
2018-11-13T18:58:34.085Z,75.00
2018-11-13T19:01:02.794Z,74.90
2018-11-13T19:03:31.483Z,75.00
2018-11-13T19:09:05.231Z,74.60
2018-11-13T19:11:33.960Z,74.80
2018-11-13T19:14:02.790Z,74.90
2018-11-13T19:16:32.068Z,74.70
2018-11-13T19:19:00.640Z,74.80
2018-11-13T19:21:29.236Z,74.70
2018-11-13T19:23:57.950Z,74.50
2018-11-13T19:26:26.501Z,74.00
2018-11-13T19:28:55.261Z,74.00
2018-11-13T19:31:24.087Z,73.80
2018-11-13T19:33:52.740Z,74.10
2018-11-13T19:36:21.740Z,73.90
2018-11-13T19:38:50.313Z,74.20
2018-11-13T19:41:19.100Z,75.10
2018-11-13T19:43:47.847Z,74.90
2018-11-13T19:46:16.581Z,74.70
2018-11-13T19:48:45.219Z,75.10
2018-11-13T19:51:13.841Z,75.10
2018-11-13T19:53:42.645Z,75.50
2018-11-13T19:56:11.279Z,75.40
2018-11-13T19:58:39.882Z,75.60
2018-11-13T20:01:08.590Z,75.60
2018-11-13T20:03:37.349Z,75.10
2018-11-13T20:06:06.122Z,75.30
2018-11-13T20:08:34.698Z,75.30
2018-11-13T20:11:03.394Z,75.40
2018-11-13T20:13:32.077Z,75.40
2018-11-13T20:16:00.945Z,75.60
2018-11-13T20:18:29.448Z,75.90
2018-11-13T20:20:58.519Z,76.30
2018-11-13T20:23:27.397Z,76.40
2018-11-13T20:25:56.056Z,76.80
2018-11-13T20:28:25.080Z,77.20
2018-11-13T20:30:53.806Z,77.30
2018-11-13T20:33:22.519Z,77.10
2018-11-13T20:35:53.863Z,77.30
2018-11-13T20:38:22.556Z,77.60
2018-11-13T20:40:54.849Z,77.40
2018-11-13T20:43:23.721Z,77.30
2018-11-13T20:45:52.285Z,77.60
2018-11-13T20:48:21.329Z,77.50
2018-11-13T20:50:50.264Z,77.60
2018-11-13T20:53:19.010Z,77.30
2018-11-13T20:55:47.895Z,77.50
2018-11-13T20:58:16.629Z,77.80
2018-11-13T21:00:45.419Z,78.30
2018-11-13T21:03:15.414Z,78.70
2018-11-13T21:05:44.148Z,79.10
2018-11-13T21:08:12.881Z,79.20
2018-11-13T21:10:41.692Z,79.40
2018-11-13T21:13:10.514Z,79.40
2018-11-13T21:15:39.323Z,79.70
2018-11-13T21:18:08.129Z,79.60
2018-11-13T21:20:36.929Z,80.10
2018-11-13T21:23:05.941Z,80.10
2018-11-13T21:25:34.662Z,81.30
2018-11-13T21:28:05.479Z,80.30
2018-11-13T21:30:34.448Z,80.70
2018-11-13T21:33:03.319Z,80.80
2018-11-13T21:35:32.193Z,80.80
2018-11-13T21:38:01.519Z,80.60
2018-11-13T21:40:30.229Z,80.00
2018-11-13T21:42:59.151Z,79.60
2018-11-13T21:45:28.784Z,79.40
2018-11-13T21:47:57.544Z,79.60
2018-11-13T21:50:27.564Z,79.10
2018-11-13T21:52:56.409Z,79.50
2018-11-13T21:55:26.579Z,79.70
2018-11-13T21:57:55.363Z,79.10
2018-11-13T22:00:26.404Z,78.60
2018-11-13T22:02:57.504Z,78.80
2018-11-13T22:05:27.316Z,79.00
2018-11-13T22:07:56.047Z,79.10
2018-11-13T22:10:24.730Z,79.20
2018-11-13T22:12:56.648Z,79.40
2018-11-13T22:15:26.363Z,79.60
2018-11-13T22:17:54.989Z,79.40
2018-11-13T22:20:24.286Z,79.40
2018-11-13T22:22:55.377Z,79.80
2018-11-13T22:25:25.207Z,79.90
2018-11-13T22:27:55.401Z,80.00
2018-11-13T22:30:25.153Z,80.30
2018-11-13T22:32:53.791Z,80.10
2018-11-13T22:35:22.855Z,80.30
2018-11-13T22:37:51.512Z,80.20
2018-11-13T22:40:23.434Z,80.20
2018-11-13T22:42:52.067Z,80.10
2018-11-13T22:45:22.202Z,80.30
2018-11-13T22:47:51.169Z,80.30
2018-11-13T22:50:27.779Z,80.20
2018-11-13T22:52:56.689Z,80.10
2018-11-13T22:55:25.401Z,80.50
2018-11-13T22:57:55.095Z,80.50
2018-11-13T23:00:38.736Z,80.40
2018-11-13T23:03:09.104Z,80.70
2018-11-13T23:05:37.889Z,80.00
2018-11-13T23:08:08.023Z,80.10
2018-11-13T23:10:36.624Z,79.80
2018-11-13T23:13:05.884Z,80.00
2018-11-13T23:15:34.010Z,80.00
2018-11-13T23:18:02.694Z,80.00
2018-11-13T23:20:31.414Z,80.10
2018-11-13T23:23:00.210Z,80.00
2018-11-13T23:25:29.515Z,80.10
2018-11-13T23:27:58.362Z,80.40
2018-11-13T23:30:27.998Z,80.60
2018-11-13T23:32:57.477Z,80.20
2018-11-13T23:35:26.085Z,79.90
2018-11-13T23:37:57.072Z,80.00
2018-11-13T23:40:27.152Z,80.20
2018-11-13T23:42:55.794Z,80.60
2018-11-13T23:45:25.681Z,80.50
2018-11-13T23:47:54.421Z,80.70
2018-11-13T23:50:23.020Z,80.30
2018-11-13T23:52:52.349Z,80.60
2018-11-13T23:55:20.984Z,81.00
2018-11-13T23:57:49.771Z,80.50
